sensor_id;sensor_type;location;lat;lon;timestamp;temperature;humidity
4054;DHT22;2042;47.956;9.222;2023-12-20T00:00:58;2.90;1.00
4054;DHT22;2042;47.956;9.222;2023-12-20T00:03:24;2.90;1.00
4054;DHT22;2042;47.956;9.222;2023-12-20T00:05:50;2.90;1.00
4054;DHT22;2042;47.956;9.222;2023-12-20T00:08:16;2.90;1.00
4054;DHT22;2042;47.956;9.222;2023-12-20T00:10:42;2.80;1.00
4054;DHT22;2042;47.956;9.222;2023-12-20T00:13:08;2.80;1.00
4054;DHT22;2042;47.956;9.222;2023-12-20T00:15:35;2.90;1.00
4054;DHT22;2042;47.956;9.222;2023-12-20T00:18:01;2.90;1.00
4054;DHT22;2042;47.956;9.222;2023-12-20T00:20:27;2.90;1.00
4054;DHT22;2042;47.956;9.222;2023-12-20T00:22:57;2.90;1.00
4054;DHT22;2042;47.956;9.222;2023-12-20T00:25:26;3.00;1.00
4054;DHT22;2042;47.956;9.222;2023-12-20T00:27:52;2.90;1.00
4054;DHT22;2042;47.956;9.222;2023-12-20T00:30:18;3.00;1.00
4054;DHT22;2042;47.956;9.222;2023-12-20T00:32:43;3.00;1.00
4054;DHT22;2042;47.956;9.222;2023-12-20T00:35:14;3.00;1.00
4054;DHT22;2042;47.956;9.222;2023-12-20T00:37:41;3.00;1.00
4054;DHT22;2042;47.956;9.222;2023-12-20T00:40:07;3.00;1.00
4054;DHT22;2042;47.956;9.222;2023-12-20T00:42:33;3.00;1.00
4054;DHT22;2042;47.956;9.222;2023-12-20T00:44:59;3.00;1.00
4054;DHT22;2042;47.956;9.222;2023-12-20T00:47:25;2.90;1.00
4054;DHT22;2042;47.956;9.222;2023-12-20T00:49:50;2.90;1.00
4054;DHT22;2042;47.956;9.222;2023-12-20T00:52:16;2.90;1.00
4054;DHT22;2042;47.956;9.222;2023-12-20T00:54:45;2.90;1.50
4054;DHT22;2042;47.956;9.222;2023-12-20T00:57:11;2.90;2.60
4054;DHT22;2042;47.956;9.222;2023-12-20T00:59:37;3.00;3.70
4054;DHT22;2042;47.956;9.222;2023-12-20T01:02:02;3.10;4.60
4054;DHT22;2042;47.956;9.222;2023-12-20T01:04:28;3.10;5.00
4054;DHT22;2042;47.956;9.222;2023-12-20T01:06:54;3.20;5.20
4054;DHT22;2042;47.956;9.222;2023-12-20T01:09:19;3.20;5.40
4054;DHT22;2042;47.956;9.222;2023-12-20T01:11:48;3.30;5.50
4054;DHT22;2042;47.956;9.222;2023-12-20T01:14:14;3.30;5.50
4054;DHT22;2042;47.956;9.222;2023-12-20T01:16:40;3.40;5.60
4054;DHT22;2042;47.956;9.222;2023-12-20T01:19:05;3.40;6.20
4054;DHT22;2042;47.956;9.222;2023-12-20T01:21:32;3.40;5.70
4054;DHT22;2042;47.956;9.222;2023-12-20T01:23:58;3.40;5.60
4054;DHT22;2042;47.956;9.222;2023-12-20T01:26:23;3.40;5.60
4054;DHT22;2042;47.956;9.222;2023-12-20T01:28:49;3.50;5.80
4054;DHT22;2042;47.956;9.222;2023-12-20T01:31:15;3.50;6.00
4054;DHT22;2042;47.956;9.222;2023-12-20T01:33:40;3.50;6.10
4054;DHT22;2042;47.956;9.222;2023-12-20T01:36:06;3.60;6.00
4054;DHT22;2042;47.956;9.222;2023-12-20T01:38:31;3.60;5.80
4054;DHT22;2042;47.956;9.222;2023-12-20T01:40:57;3.60;5.70
4054;DHT22;2042;47.956;9.222;2023-12-20T01:43:23;3.50;5.60
4054;DHT22;2042;47.956;9.222;2023-12-20T01:45:49;3.50;5.70
4054;DHT22;2042;47.956;9.222;2023-12-20T01:48:16;3.60;5.80
4054;DHT22;2042;47.956;9.222;2023-12-20T01:50:43;3.60;5.80
4054;DHT22;2042;47.956;9.222;2023-12-20T01:53:12;3.50;5.90
4054;DHT22;2042;47.956;9.222;2023-12-20T01:55:40;3.60;5.90
4054;DHT22;2042;47.956;9.222;2023-12-20T01:58:07;3.60;6.10
4054;DHT22;2042;47.956;9.222;2023-12-20T02:00:36;3.60;6.30
4054;DHT22;2042;47.956;9.222;2023-12-20T02:03:03;3.70;6.80
4054;DHT22;2042;47.956;9.222;2023-12-20T02:05:33;3.70;7.10
4054;DHT22;2042;47.956;9.222;2023-12-20T02:07:59;3.80;7.10
4054;DHT22;2042;47.956;9.222;2023-12-20T02:10:25;3.80;7.20
4054;DHT22;2042;47.956;9.222;2023-12-20T02:12:51;3.90;7.20
4054;DHT22;2042;47.956;9.222;2023-12-20T02:15:16;3.90;6.70
4054;DHT22;2042;47.956;9.222;2023-12-20T02:17:42;4.00;6.20
4054;DHT22;2042;47.956;9.222;2023-12-20T02:20:09;4.00;6.00
4054;DHT22;2042;47.956;9.222;2023-12-20T02:22:35;4.00;5.80
4054;DHT22;2042;47.956;9.222;2023-12-20T02:25:01;4.00;5.80
4054;DHT22;2042;47.956;9.222;2023-12-20T02:27:27;4.00;5.70
4054;DHT22;2042;47.956;9.222;2023-12-20T02:29:54;4.10;5.40
4054;DHT22;2042;47.956;9.222;2023-12-20T02:32:21;4.10;5.00
4054;DHT22;2042;47.956;9.222;2023-12-20T02:34:48;4.10;4.50
4054;DHT22;2042;47.956;9.222;2023-12-20T02:37:14;4.10;4.10
4054;DHT22;2042;47.956;9.222;2023-12-20T02:39:39;4.10;3.90
4054;DHT22;2042;47.956;9.222;2023-12-20T02:42:05;4.10;3.70
4054;DHT22;2042;47.956;9.222;2023-12-20T02:44:31;4.10;3.10
4054;DHT22;2042;47.956;9.222;2023-12-20T02:46:56;4.10;2.60
4054;DHT22;2042;47.956;9.222;2023-12-20T02:49:22;4.00;2.10
4054;DHT22;2042;47.956;9.222;2023-12-20T02:51:47;4.00;1.80
4054;DHT22;2042;47.956;9.222;2023-12-20T02:54:13;4.00;2.00
4054;DHT22;2042;47.956;9.222;2023-12-20T02:56:39;4.00;1.30
4054;DHT22;2042;47.956;9.222;2023-12-20T02:59:05;3.90;1.00
4054;DHT22;2042;47.956;9.222;2023-12-20T03:01:31;3.90;1.00
4054;DHT22;2042;47.956;9.222;2023-12-20T03:03:57;3.90;1.00
4054;DHT22;2042;47.956;9.222;2023-12-20T03:06:23;3.90;1.00
4054;DHT22;2042;47.956;9.222;2023-12-20T03:08:49;3.80;1.00
4054;DHT22;2042;47.956;9.222;2023-12-20T03:11:14;3.80;1.00
4054;DHT22;2042;47.956;9.222;2023-12-20T03:13:40;3.80;1.00
4054;DHT22;2042;47.956;9.222;2023-12-20T03:16:10;3.70;1.00
4054;DHT22;2042;47.956;9.222;2023-12-20T03:18:36;3.70;1.20
4054;DHT22;2042;47.956;9.222;2023-12-20T03:21:02;3.60;1.50
4054;DHT22;2042;47.956;9.222;2023-12-20T03:23:27;3.60;1.80
4054;DHT22;2042;47.956;9.222;2023-12-20T03:28:19;3.40;2.80
4054;DHT22;2042;47.956;9.222;2023-12-20T03:30:45;3.40;4.20
4054;DHT22;2042;47.956;9.222;2023-12-20T03:33:11;3.30;5.40
4054;DHT22;2042;47.956;9.222;2023-12-20T03:35:36;3.30;6.20
4054;DHT22;2042;47.956;9.222;2023-12-20T03:38:02;3.30;7.40
4054;DHT22;2042;47.956;9.222;2023-12-20T03:40:28;3.20;8.60
4054;DHT22;2042;47.956;9.222;2023-12-20T03:42:53;3.20;9.50
4054;DHT22;2042;47.956;9.222;2023-12-20T03:45:19;3.20;10.30
4054;DHT22;2042;47.956;9.222;2023-12-20T03:47:45;3.20;11.10
4054;DHT22;2042;47.956;9.222;2023-12-20T03:50:10;3.20;11.90
4054;DHT22;2042;47.956;9.222;2023-12-20T03:52:36;3.20;12.80
4054;DHT22;2042;47.956;9.222;2023-12-20T03:55:01;3.10;13.00
4054;DHT22;2042;47.956;9.222;2023-12-20T03:57:27;3.10;13.40
4054;DHT22;2042;47.956;9.222;2023-12-20T03:59:52;3.10;14.00
4054;DHT22;2042;47.956;9.222;2023-12-20T04:02:19;3.10;14.70
4054;DHT22;2042;47.956;9.222;2023-12-20T04:04:45;3.00;15.20
4054;DHT22;2042;47.956;9.222;2023-12-20T04:07:10;3.00;15.90
4054;DHT22;2042;47.956;9.222;2023-12-20T04:09:36;3.00;16.30
4054;DHT22;2042;47.956;9.222;2023-12-20T04:12:01;3.00;20.90
4054;DHT22;2042;47.956;9.222;2023-12-20T04:14:27;3.00;18.80
4054;DHT22;2042;47.956;9.222;2023-12-20T04:16:53;2.90;18.30
4054;DHT22;2042;47.956;9.222;2023-12-20T04:19:19;2.90;18.30
4054;DHT22;2042;47.956;9.222;2023-12-20T04:21:44;2.90;18.80
4054;DHT22;2042;47.956;9.222;2023-12-20T04:24:10;2.80;19.00
4054;DHT22;2042;47.956;9.222;2023-12-20T04:26:36;2.80;19.50
4054;DHT22;2042;47.956;9.222;2023-12-20T04:29:02;2.90;19.90
4054;DHT22;2042;47.956;9.222;2023-12-20T04:31:27;2.80;20.10
4054;DHT22;2042;47.956;9.222;2023-12-20T04:33:53;2.80;20.10
4054;DHT22;2042;47.956;9.222;2023-12-20T04:36:19;2.80;20.30
4054;DHT22;2042;47.956;9.222;2023-12-20T04:38:44;2.80;20.80
4054;DHT22;2042;47.956;9.222;2023-12-20T04:41:10;2.80;21.30
4054;DHT22;2042;47.956;9.222;2023-12-20T04:43:35;2.80;21.80
4054;DHT22;2042;47.956;9.222;2023-12-20T04:46:01;2.80;22.20
4054;DHT22;2042;47.956;9.222;2023-12-20T04:48:27;2.80;22.60
4054;DHT22;2042;47.956;9.222;2023-12-20T04:50:53;2.80;23.00
4054;DHT22;2042;47.956;9.222;2023-12-20T04:53:18;2.80;23.40
4054;DHT22;2042;47.956;9.222;2023-12-20T04:55:44;2.80;23.60
4054;DHT22;2042;47.956;9.222;2023-12-20T04:58:10;2.80;23.80
4054;DHT22;2042;47.956;9.222;2023-12-20T05:00:35;2.80;24.30
4054;DHT22;2042;47.956;9.222;2023-12-20T05:03:01;2.80;24.60
4054;DHT22;2042;47.956;9.222;2023-12-20T05:05:27;2.80;24.80
4054;DHT22;2042;47.956;9.222;2023-12-20T05:07:52;2.80;25.20
4054;DHT22;2042;47.956;9.222;2023-12-20T05:10:18;2.80;25.50
4054;DHT22;2042;47.956;9.222;2023-12-20T05:12:44;2.80;25.80
4054;DHT22;2042;47.956;9.222;2023-12-20T05:15:09;2.90;26.30
4054;DHT22;2042;47.956;9.222;2023-12-20T05:17:35;2.90;26.60
4054;DHT22;2042;47.956;9.222;2023-12-20T05:20:00;2.90;26.90
4054;DHT22;2042;47.956;9.222;2023-12-20T05:22:26;2.80;27.00
4054;DHT22;2042;47.956;9.222;2023-12-20T05:24:53;2.80;27.10
4054;DHT22;2042;47.956;9.222;2023-12-20T05:27:19;2.80;27.20
4054;DHT22;2042;47.956;9.222;2023-12-20T05:29:45;2.90;27.30
4054;DHT22;2042;47.956;9.222;2023-12-20T05:32:10;2.90;27.50
4054;DHT22;2042;47.956;9.222;2023-12-20T05:34:36;2.90;27.70
4054;DHT22;2042;47.956;9.222;2023-12-20T05:37:02;2.90;27.90
4054;DHT22;2042;47.956;9.222;2023-12-20T05:39:27;2.90;28.10
4054;DHT22;2042;47.956;9.222;2023-12-20T05:41:53;2.90;28.50
4054;DHT22;2042;47.956;9.222;2023-12-20T05:44:18;2.90;28.80
4054;DHT22;2042;47.956;9.222;2023-12-20T05:46:44;2.90;29.00
4054;DHT22;2042;47.956;9.222;2023-12-20T05:49:10;2.90;29.50
4054;DHT22;2042;47.956;9.222;2023-12-20T05:51:36;3.00;29.50
4054;DHT22;2042;47.956;9.222;2023-12-20T05:54:01;2.90;29.70
4054;DHT22;2042;47.956;9.222;2023-12-20T05:56:27;3.00;29.90
4054;DHT22;2042;47.956;9.222;2023-12-20T05:58:53;3.00;30.00
4054;DHT22;2042;47.956;9.222;2023-12-20T06:01:18;3.00;30.40
4054;DHT22;2042;47.956;9.222;2023-12-20T06:03:44;3.00;30.60
4054;DHT22;2042;47.956;9.222;2023-12-20T06:06:11;3.00;30.80
4054;DHT22;2042;47.956;9.222;2023-12-20T06:08:38;3.00;30.80
4054;DHT22;2042;47.956;9.222;2023-12-20T06:11:04;3.00;30.90
4054;DHT22;2042;47.956;9.222;2023-12-20T06:13:31;3.00;31.10
4054;DHT22;2042;47.956;9.222;2023-12-20T06:15:56;3.00;31.30
4054;DHT22;2042;47.956;9.222;2023-12-20T06:18:22;3.00;31.40
4054;DHT22;2042;47.956;9.222;2023-12-20T06:20:48;3.10;31.70
4054;DHT22;2042;47.956;9.222;2023-12-20T06:23:13;3.10;31.80
4054;DHT22;2042;47.956;9.222;2023-12-20T06:25:39;3.00;32.00
4054;DHT22;2042;47.956;9.222;2023-12-20T06:28:05;3.10;32.30
4054;DHT22;2042;47.956;9.222;2023-12-20T06:30:31;3.10;32.50
4054;DHT22;2042;47.956;9.222;2023-12-20T06:32:58;3.10;32.70
4054;DHT22;2042;47.956;9.222;2023-12-20T06:35:24;3.10;32.90
4054;DHT22;2042;47.956;9.222;2023-12-20T06:37:50;3.10;33.00
4054;DHT22;2042;47.956;9.222;2023-12-20T06:40:15;3.10;33.20
4054;DHT22;2042;47.956;9.222;2023-12-20T06:42:41;3.10;33.30
4054;DHT22;2042;47.956;9.222;2023-12-20T06:45:07;3.10;33.50
4054;DHT22;2042;47.956;9.222;2023-12-20T06:47:33;3.10;33.60
4054;DHT22;2042;47.956;9.222;2023-12-20T06:49:59;3.10;33.70
4054;DHT22;2042;47.956;9.222;2023-12-20T06:52:26;3.10;33.90
4054;DHT22;2042;47.956;9.222;2023-12-20T06:54:51;3.10;34.10
4054;DHT22;2042;47.956;9.222;2023-12-20T06:57:17;3.10;34.70
4054;DHT22;2042;47.956;9.222;2023-12-20T06:59:43;3.10;34.80
4054;DHT22;2042;47.956;9.222;2023-12-20T07:02:09;3.10;34.90
4054;DHT22;2042;47.956;9.222;2023-12-20T07:04:39;3.10;34.90
4054;DHT22;2042;47.956;9.222;2023-12-20T07:07:05;3.10;35.00
4054;DHT22;2042;47.956;9.222;2023-12-20T07:09:32;3.20;35.20
4054;DHT22;2042;47.956;9.222;2023-12-20T07:11:58;3.20;35.20
4054;DHT22;2042;47.956;9.222;2023-12-20T07:14:24;3.20;35.30
4054;DHT22;2042;47.956;9.222;2023-12-20T07:16:50;3.20;35.40
4054;DHT22;2042;47.956;9.222;2023-12-20T07:19:15;3.20;35.40
4054;DHT22;2042;47.956;9.222;2023-12-20T07:21:41;3.20;35.50
4054;DHT22;2042;47.956;9.222;2023-12-20T07:24:07;3.20;35.50
4054;DHT22;2042;47.956;9.222;2023-12-20T07:26:33;3.20;35.50
4054;DHT22;2042;47.956;9.222;2023-12-20T07:28:59;3.20;35.60
4054;DHT22;2042;47.956;9.222;2023-12-20T07:31:26;3.20;35.70
4054;DHT22;2042;47.956;9.222;2023-12-20T07:33:51;3.20;35.80
4054;DHT22;2042;47.956;9.222;2023-12-20T07:36:19;3.20;36.00
4054;DHT22;2042;47.956;9.222;2023-12-20T07:38:45;3.30;36.00
4054;DHT22;2042;47.956;9.222;2023-12-20T07:41:11;3.30;36.00
4054;DHT22;2042;47.956;9.222;2023-12-20T07:43:36;3.30;36.00
4054;DHT22;2042;47.956;9.222;2023-12-20T07:46:08;3.30;36.20
4054;DHT22;2042;47.956;9.222;2023-12-20T07:48:37;3.30;36.30
4054;DHT22;2042;47.956;9.222;2023-12-20T07:51:06;3.30;36.50
4054;DHT22;2042;47.956;9.222;2023-12-20T07:53:33;3.30;36.70
4054;DHT22;2042;47.956;9.222;2023-12-20T07:56:00;3.30;36.70
4054;DHT22;2042;47.956;9.222;2023-12-20T07:58:26;3.30;36.90
4054;DHT22;2042;47.956;9.222;2023-12-20T08:00:51;3.40;37.30
4054;DHT22;2042;47.956;9.222;2023-12-20T08:03:17;3.40;37.70
4054;DHT22;2042;47.956;9.222;2023-12-20T08:05:43;3.40;37.60
4054;DHT22;2042;47.956;9.222;2023-12-20T08:08:09;3.50;37.80
4054;DHT22;2042;47.956;9.222;2023-12-20T08:10:35;3.50;38.10
4054;DHT22;2042;47.956;9.222;2023-12-20T08:13:00;3.60;38.20
4054;DHT22;2042;47.956;9.222;2023-12-20T08:15:26;3.60;38.30
4054;DHT22;2042;47.956;9.222;2023-12-20T08:17:52;3.60;38.40
4054;DHT22;2042;47.956;9.222;2023-12-20T08:20:18;3.70;39.00
4054;DHT22;2042;47.956;9.222;2023-12-20T08:22:44;3.70;38.80
4054;DHT22;2042;47.956;9.222;2023-12-20T08:25:09;3.80;39.00
4054;DHT22;2042;47.956;9.222;2023-12-20T08:27:41;3.80;39.00
4054;DHT22;2042;47.956;9.222;2023-12-20T08:30:08;3.80;38.70
4054;DHT22;2042;47.956;9.222;2023-12-20T08:32:35;3.90;39.10
4054;DHT22;2042;47.956;9.222;2023-12-20T08:35:01;4.00;42.30
4054;DHT22;2042;47.956;9.222;2023-12-20T08:37:28;4.10;46.40
4054;DHT22;2042;47.956;9.222;2023-12-20T08:39:55;4.10;44.60
4054;DHT22;2042;47.956;9.222;2023-12-20T08:42:21;4.20;51.00
4054;DHT22;2042;47.956;9.222;2023-12-20T08:44:47;4.20;38.80
4054;DHT22;2042;47.956;9.222;2023-12-20T08:47:12;4.30;38.20
4054;DHT22;2042;47.956;9.222;2023-12-20T08:49:41;4.20;37.50
4054;DHT22;2042;47.956;9.222;2023-12-20T08:52:06;4.10;35.80
4054;DHT22;2042;47.956;9.222;2023-12-20T08:54:32;4.00;34.30
4054;DHT22;2042;47.956;9.222;2023-12-20T08:56:58;3.90;33.80
4054;DHT22;2042;47.956;9.222;2023-12-20T08:59:23;3.80;34.30
4054;DHT22;2042;47.956;9.222;2023-12-20T09:01:49;3.90;36.00
4054;DHT22;2042;47.956;9.222;2023-12-20T09:04:19;4.10;38.70
4054;DHT22;2042;47.956;9.222;2023-12-20T09:06:45;4.70;41.90
4054;DHT22;2042;47.956;9.222;2023-12-20T09:09:11;4.90;38.90
4054;DHT22;2042;47.956;9.222;2023-12-20T09:11:39;4.80;35.50
4054;DHT22;2042;47.956;9.222;2023-12-20T09:14:04;4.70;33.20
4054;DHT22;2042;47.956;9.222;2023-12-20T09:16:30;4.50;30.50
4054;DHT22;2042;47.956;9.222;2023-12-20T09:18:57;4.40;31.00
4054;DHT22;2042;47.956;9.222;2023-12-20T09:21:23;4.50;32.30
4054;DHT22;2042;47.956;9.222;2023-12-20T09:23:49;4.60;31.80
4054;DHT22;2042;47.956;9.222;2023-12-20T09:26:15;4.60;29.80
4054;DHT22;2042;47.956;9.222;2023-12-20T09:28:40;4.60;29.70
4054;DHT22;2042;47.956;9.222;2023-12-20T09:31:06;4.70;29.70
4054;DHT22;2042;47.956;9.222;2023-12-20T09:33:32;4.90;32.20
4054;DHT22;2042;47.956;9.222;2023-12-20T09:35:58;5.20;33.80
4054;DHT22;2042;47.956;9.222;2023-12-20T09:38:24;5.50;32.30
4054;DHT22;2042;47.956;9.222;2023-12-20T09:40:50;5.60;28.60
4054;DHT22;2042;47.956;9.222;2023-12-20T09:43:19;5.60;26.20
4054;DHT22;2042;47.956;9.222;2023-12-20T09:45:46;5.70;26.90
4054;DHT22;2042;47.956;9.222;2023-12-20T09:48:13;5.90;24.60
4054;DHT22;2042;47.956;9.222;2023-12-20T09:50:42;5.90;21.00
4054;DHT22;2042;47.956;9.222;2023-12-20T09:53:10;5.80;18.20
4054;DHT22;2042;47.956;9.222;2023-12-20T09:55:37;5.70;16.20
4054;DHT22;2042;47.956;9.222;2023-12-20T09:58:03;5.60;15.70
4054;DHT22;2042;47.956;9.222;2023-12-20T10:00:29;5.60;16.80
4054;DHT22;2042;47.956;9.222;2023-12-20T10:02:59;5.80;20.50
4054;DHT22;2042;47.956;9.222;2023-12-20T10:05:30;6.10;20.60
4054;DHT22;2042;47.956;9.222;2023-12-20T10:07:57;6.20;17.60
4054;DHT22;2042;47.956;9.222;2023-12-20T10:10:23;6.20;14.00
4054;DHT22;2042;47.956;9.222;2023-12-20T10:13:03;6.30;12.50
4054;DHT22;2042;47.956;9.222;2023-12-20T10:15:29;6.70;15.10
4054;DHT22;2042;47.956;9.222;2023-12-20T10:17:56;7.20;9.30
4054;DHT22;2042;47.956;9.222;2023-12-20T10:20:22;7.50;9.60
4054;DHT22;2042;47.956;9.222;2023-12-20T10:22:48;8.20;8.40
4054;DHT22;2042;47.956;9.222;2023-12-20T10:25:16;8.40;1.00
4054;DHT22;2042;47.956;9.222;2023-12-20T10:30:09;9.30;14.10
4054;DHT22;2042;47.956;9.222;2023-12-20T10:32:35;10.00;9.20
4054;DHT22;2042;47.956;9.222;2023-12-20T10:35:00;10.20;1.00
4054;DHT22;2042;47.956;9.222;2023-12-20T10:37:26;9.90;1.00
4054;DHT22;2042;47.956;9.222;2023-12-20T10:39:53;9.40;1.00
4054;DHT22;2042;47.956;9.222;2023-12-20T10:42:27;8.70;1.00
4054;DHT22;2042;47.956;9.222;2023-12-20T10:44:53;8.10;1.00
4054;DHT22;2042;47.956;9.222;2023-12-20T10:47:19;7.70;3.70
4054;DHT22;2042;47.956;9.222;2023-12-20T10:49:46;7.40;6.60
4054;DHT22;2042;47.956;9.222;2023-12-20T10:52:12;7.20;10.10
4054;DHT22;2042;47.956;9.222;2023-12-20T10:54:41;7.00;12.10
4054;DHT22;2042;47.956;9.222;2023-12-20T10:57:07;6.90;13.90
4054;DHT22;2042;47.956;9.222;2023-12-20T10:59:39;6.80;15.70
4054;DHT22;2042;47.956;9.222;2023-12-20T11:02:05;6.70;17.00
4054;DHT22;2042;47.956;9.222;2023-12-20T11:04:49;6.70;18.20
4054;DHT22;2042;47.956;9.222;2023-12-20T11:07:21;7.00;20.70
4054;DHT22;2042;47.956;9.222;2023-12-20T11:09:57;7.30;19.30
4054;DHT22;2042;47.956;9.222;2023-12-20T11:13:06;7.30;17.80
4054;DHT22;2042;47.956;9.222;2023-12-20T11:15:36;7.40;17.10
4054;DHT22;2042;47.956;9.222;2023-12-20T11:18:03;7.60;17.20
4054;DHT22;2042;47.956;9.222;2023-12-20T11:20:40;7.80;15.90
4054;DHT22;2042;47.956;9.222;2023-12-20T11:23:07;7.80;15.20
4054;DHT22;2042;47.956;9.222;2023-12-20T11:25:53;7.90;13.80
4054;DHT22;2042;47.956;9.222;2023-12-20T11:28:23;7.80;12.10
4054;DHT22;2042;47.956;9.222;2023-12-20T11:30:57;7.60;12.50
4054;DHT22;2042;47.956;9.222;2023-12-20T11:33:36;7.40;12.90
4054;DHT22;2042;47.956;9.222;2023-12-20T11:36:02;7.20;13.60
4054;DHT22;2042;47.956;9.222;2023-12-20T11:38:36;6.90;14.30
4054;DHT22;2042;47.956;9.222;2023-12-20T11:41:05;6.50;15.00
4054;DHT22;2042;47.956;9.222;2023-12-20T11:43:34;6.20;17.30
4054;DHT22;2042;47.956;9.222;2023-12-20T11:46:04;6.00;19.80
4054;DHT22;2042;47.956;9.222;2023-12-20T11:48:31;5.90;21.50
4054;DHT22;2042;47.956;9.222;2023-12-20T11:50:58;5.90;21.60
4054;DHT22;2042;47.956;9.222;2023-12-20T11:53:23;5.90;21.90
4054;DHT22;2042;47.956;9.222;2023-12-20T11:55:49;5.90;22.30
4054;DHT22;2042;47.956;9.222;2023-12-20T11:58:15;5.90;23.50
4054;DHT22;2042;47.956;9.222;2023-12-20T12:00:42;6.10;24.90
4054;DHT22;2042;47.956;9.222;2023-12-20T12:03:08;6.20;25.40
4054;DHT22;2042;47.956;9.222;2023-12-20T12:15:22;7.10;16.70
4054;DHT22;2042;47.956;9.222;2023-12-20T12:30:28;7.00;9.60
4054;DHT22;2042;47.956;9.222;2023-12-20T12:32:56;7.70;8.00
4054;DHT22;2042;47.956;9.222;2023-12-20T12:35:22;7.60;1.00
4054;DHT22;2042;47.956;9.222;2023-12-20T12:37:48;7.80;1.00
4054;DHT22;2042;47.956;9.222;2023-12-20T12:40:15;7.80;1.00
4054;DHT22;2042;47.956;9.222;2023-12-20T12:42:42;7.50;1.00
4054;DHT22;2042;47.956;9.222;2023-12-20T12:45:09;7.10;1.00
4054;DHT22;2042;47.956;9.222;2023-12-20T12:47:35;6.80;1.00
4054;DHT22;2042;47.956;9.222;2023-12-20T12:50:02;6.60;1.00
4054;DHT22;2042;47.956;9.222;2023-12-20T12:52:27;6.50;1.00
4054;DHT22;2042;47.956;9.222;2023-12-20T12:54:53;6.40;1.00
4054;DHT22;2042;47.956;9.222;2023-12-20T12:57:19;6.60;1.00
4054;DHT22;2042;47.956;9.222;2023-12-20T12:59:45;6.80;1.00
4054;DHT22;2042;47.956;9.222;2023-12-20T13:02:15;6.70;1.00
4054;DHT22;2042;47.956;9.222;2023-12-20T13:04:41;6.60;1.00
4054;DHT22;2042;47.956;9.222;2023-12-20T13:07:07;6.50;1.00
4054;DHT22;2042;47.956;9.222;2023-12-20T13:09:36;6.60;1.00
4054;DHT22;2042;47.956;9.222;2023-12-20T13:12:01;6.50;1.00
4054;DHT22;2042;47.956;9.222;2023-12-20T13:14:30;6.40;1.00
4054;DHT22;2042;47.956;9.222;2023-12-20T13:16:56;6.40;1.00
4054;DHT22;2042;47.956;9.222;2023-12-20T13:19:21;6.50;1.00
4054;DHT22;2042;47.956;9.222;2023-12-20T13:21:47;6.50;1.00
4054;DHT22;2042;47.956;9.222;2023-12-20T13:24:14;6.40;1.00
4054;DHT22;2042;47.956;9.222;2023-12-20T13:26:40;6.20;1.00
4054;DHT22;2042;47.956;9.222;2023-12-20T13:29:06;5.90;1.00
4054;DHT22;2042;47.956;9.222;2023-12-20T13:31:31;5.70;1.00
4054;DHT22;2042;47.956;9.222;2023-12-20T13:33:57;5.40;1.00
4054;DHT22;2042;47.956;9.222;2023-12-20T13:36:23;5.20;1.00
4054;DHT22;2042;47.956;9.222;2023-12-20T13:38:48;5.10;1.00
4054;DHT22;2042;47.956;9.222;2023-12-20T13:41:14;5.00;1.00
4054;DHT22;2042;47.956;9.222;2023-12-20T13:43:40;4.90;1.00
4054;DHT22;2042;47.956;9.222;2023-12-20T13:46:05;4.80;1.00
4054;DHT22;2042;47.956;9.222;2023-12-20T13:48:31;4.70;1.00
4054;DHT22;2042;47.956;9.222;2023-12-20T13:50:56;4.60;1.00
4054;DHT22;2042;47.956;9.222;2023-12-20T13:53:22;4.50;1.00
4054;DHT22;2042;47.956;9.222;2023-12-20T13:55:49;4.40;1.00
4054;DHT22;2042;47.956;9.222;2023-12-20T13:58:15;4.30;1.00
4054;DHT22;2042;47.956;9.222;2023-12-20T14:00:40;4.30;1.00
4054;DHT22;2042;47.956;9.222;2023-12-20T14:03:06;4.10;1.00
4054;DHT22;2042;47.956;9.222;2023-12-20T14:05:32;4.00;1.00
4054;DHT22;2042;47.956;9.222;2023-12-20T14:07:58;3.80;1.00
4054;DHT22;2042;47.956;9.222;2023-12-20T14:10:24;3.80;1.00
4054;DHT22;2042;47.956;9.222;2023-12-20T14:12:54;3.70;1.00
4054;DHT22;2042;47.956;9.222;2023-12-20T14:15:20;3.60;1.00
4054;DHT22;2042;47.956;9.222;2023-12-20T14:17:45;3.60;1.00
4054;DHT22;2042;47.956;9.222;2023-12-20T14:20:11;3.60;1.00
4054;DHT22;2042;47.956;9.222;2023-12-20T14:22:38;3.80;1.00
4054;DHT22;2042;47.956;9.222;2023-12-20T14:25:13;3.90;1.00
4054;DHT22;2042;47.956;9.222;2023-12-20T14:27:42;4.00;1.00
4054;DHT22;2042;47.956;9.222;2023-12-20T14:30:12;4.00;1.00
4054;DHT22;2042;47.956;9.222;2023-12-20T14:32:39;4.00;1.00
4054;DHT22;2042;47.956;9.222;2023-12-20T14:35:05;3.90;1.00
4054;DHT22;2042;47.956;9.222;2023-12-20T14:37:31;3.90;1.00
4054;DHT22;2042;47.956;9.222;2023-12-20T14:39:57;3.80;1.00
4054;DHT22;2042;47.956;9.222;2023-12-20T14:42:23;3.70;1.00
4054;DHT22;2042;47.956;9.222;2023-12-20T14:44:48;3.70;1.00
4054;DHT22;2042;47.956;9.222;2023-12-20T14:47:14;3.60;1.00
4054;DHT22;2042;47.956;9.222;2023-12-20T14:49:41;3.60;1.00
4054;DHT22;2042;47.956;9.222;2023-12-20T14:52:08;3.60;1.00
4054;DHT22;2042;47.956;9.222;2023-12-20T14:54:36;3.60;1.00
4054;DHT22;2042;47.956;9.222;2023-12-20T14:57:02;3.60;1.00
4054;DHT22;2042;47.956;9.222;2023-12-20T14:59:28;3.50;1.00
4054;DHT22;2042;47.956;9.222;2023-12-20T15:01:53;3.40;1.00
4054;DHT22;2042;47.956;9.222;2023-12-20T15:04:20;3.30;1.00
4054;DHT22;2042;47.956;9.222;2023-12-20T15:06:52;3.10;1.00
4054;DHT22;2042;47.956;9.222;2023-12-20T15:09:18;3.00;1.00
4054;DHT22;2042;47.956;9.222;2023-12-20T15:11:43;2.80;1.00
4054;DHT22;2042;47.956;9.222;2023-12-20T15:14:09;2.70;1.00
4054;DHT22;2042;47.956;9.222;2023-12-20T15:16:35;2.60;1.00
4054;DHT22;2042;47.956;9.222;2023-12-20T15:19:01;2.60;1.00
4054;DHT22;2042;47.956;9.222;2023-12-20T15:21:26;2.60;1.00
4054;DHT22;2042;47.956;9.222;2023-12-20T15:23:57;2.60;1.00
4054;DHT22;2042;47.956;9.222;2023-12-20T15:26:32;2.60;1.00
4054;DHT22;2042;47.956;9.222;2023-12-20T15:28:58;2.50;1.00
4054;DHT22;2042;47.956;9.222;2023-12-20T15:31:26;2.50;1.00
4054;DHT22;2042;47.956;9.222;2023-12-20T15:33:52;2.40;1.00
4054;DHT22;2042;47.956;9.222;2023-12-20T15:36:19;2.40;1.00
4054;DHT22;2042;47.956;9.222;2023-12-20T15:38:44;2.30;1.00
4054;DHT22;2042;47.956;9.222;2023-12-20T15:41:17;2.30;1.00
4054;DHT22;2042;47.956;9.222;2023-12-20T15:43:44;2.20;1.00
4054;DHT22;2042;47.956;9.222;2023-12-20T15:46:10;2.20;1.00
4054;DHT22;2042;47.956;9.222;2023-12-20T15:48:35;2.20;1.00
4054;DHT22;2042;47.956;9.222;2023-12-20T15:51:05;2.20;1.00
4054;DHT22;2042;47.956;9.222;2023-12-20T15:53:30;2.20;1.00
4054;DHT22;2042;47.956;9.222;2023-12-20T15:55:56;2.20;1.00
4054;DHT22;2042;47.956;9.222;2023-12-20T15:58:22;2.10;1.00
4054;DHT22;2042;47.956;9.222;2023-12-20T16:00:48;2.00;1.00
4054;DHT22;2042;47.956;9.222;2023-12-20T16:03:14;1.90;1.00
4054;DHT22;2042;47.956;9.222;2023-12-20T16:05:40;1.90;1.00
4054;DHT22;2042;47.956;9.222;2023-12-20T16:08:06;1.90;1.00
4054;DHT22;2042;47.956;9.222;2023-12-20T16:10:31;2.00;1.00
4054;DHT22;2042;47.956;9.222;2023-12-20T16:12:57;2.00;1.00
4054;DHT22;2042;47.956;9.222;2023-12-20T16:15:23;2.10;1.00
4054;DHT22;2042;47.956;9.222;2023-12-20T16:17:48;2.00;1.00
4054;DHT22;2042;47.956;9.222;2023-12-20T16:20:14;2.00;1.00
4054;DHT22;2042;47.956;9.222;2023-12-20T16:22:40;2.00;1.00
4054;DHT22;2042;47.956;9.222;2023-12-20T16:25:06;2.00;1.00
4054;DHT22;2042;47.956;9.222;2023-12-20T16:27:33;2.10;1.00
4054;DHT22;2042;47.956;9.222;2023-12-20T16:30:02;2.10;1.00
4054;DHT22;2042;47.956;9.222;2023-12-20T16:32:28;2.10;1.00
4054;DHT22;2042;47.956;9.222;2023-12-20T16:34:53;2.00;1.00
4054;DHT22;2042;47.956;9.222;2023-12-20T16:37:19;2.00;1.00
4054;DHT22;2042;47.956;9.222;2023-12-20T16:39:44;1.90;1.00
4054;DHT22;2042;47.956;9.222;2023-12-20T16:42:10;1.70;1.00
4054;DHT22;2042;47.956;9.222;2023-12-20T16:44:35;1.60;1.00
4054;DHT22;2042;47.956;9.222;2023-12-20T16:47:01;1.60;1.00
4054;DHT22;2042;47.956;9.222;2023-12-20T16:49:27;1.50;1.00